Impacts METAR Board
IDs:

KSAN - San Diego Intl Arpt, CA, US

Updated at: 1200 UTC 19 Jun 2018
Potential Impact None Slight Moderate High
Time 19/00Z 19/01Z 19/02Z 19/03Z 19/04Z 19/05Z 19/06Z 19/07Z 19/08Z 19/09Z 19/10Z 19/11Z 19/12Z
Temp69 69 68 66 65 66 65 65 65 65 65 66 66
Dewpt55 56 56 56 57 57 57 57 57 57 57 57 57
Altim30.01 30.00 30.00 30.00 30.01 30.02 30.01 30.01 29.99 29.99 29.98 29.97 29.97
VIS10 10 10 10 10 10 10 10 10 10 10 10 10
CIG-- -- -- -- -- 18 21 20 19 21 18 17 19
CoverSCTSCTSCTFEWSCTBKNBKNOVCOVCOVCOVCOVCOVC
FltCatVFRVFRVFRVFRVFRMVFRMVFRMVFRMVFRMVFRMVFRMVFRMVFR
WX--------------------------
WDir3003102902903203003203103102903303000
WSpd11 10 11 8 8 7 6 7 6 7 6 4 0
WGst-- -- -- -- -- -- -- -- -- -- -- -- --
Raw hourly METARs
KSAN 182351Z 30011KT 10SM SCT023 21/13 A3001 RMK AO2 SLP162 SCT V BKN T02060128 10222 20200 57004 $
KSAN 190051Z 31010KT 10SM SCT022 21/13 A3000 RMK AO2 SLP158 SCT V BKN T02060133 $
KSAN 190151Z 29011KT 10SM SCT020 20/13 A3000 RMK AO2 SLP157 T02000133 $
KSAN 190251Z 29008KT 10SM FEW020 19/13 A3000 RMK AO2 SLP157 T01890133 56005 $
KSAN 190351Z 32008KT 10SM SCT018 18/14 A3001 RMK AO2 SLP161 T01830139 $
KSAN 190451Z 30007KT 10SM BKN018 19/14 A3002 RMK AO2 SLP165 T01890139 $
KSAN 190551Z 32006KT 10SM BKN021 18/14 A3001 RMK AO2 SLP162 T01830139 10211 20183 50005 $
KSAN 190651Z 31007KT 10SM OVC020 18/14 A3001 RMK AO2 SLP160 T01830139 $
KSAN 190751Z 31006KT 10SM OVC019 18/14 A2999 RMK AO2 SLP156 T01830139 402220178 $
KSAN 190851Z 29007KT 10SM OVC021 18/14 A2999 RMK AO2 SLP154 T01830139 58008 $
KSAN 190951Z 33006KT 10SM OVC018 18/14 A2998 RMK AO2 SLP152 T01830139 $
KSAN 191051Z 30004KT 10SM OVC017 19/14 A2997 RMK AO2 SLP149 T01890139 $
KSAN 191151Z 00000KT 10SM OVC019 19/14 A2997 RMK AO2 SLP149 T01890139 10189 20183 56005 $



Page loaded:  12:36 UTC  |   05:36 AM Pacific  |   06:36 AM Mountain  |   07:36 AM Central  |   08:36 AM Eastern

 

ADVISORIES

FORECASTS

FORECASTS

OBSERVATIONS

USER TOOLS

ABOUT US